sensor_id;sensor_type;location;lat;lon;timestamp;P1;durP1;ratioP1;P2;durP2;ratioP2
54795;SDS011;40693;43.884;20.340;2024-01-07T00:00:34;125.90;;;80.13;;
54795;SDS011;40693;43.884;20.340;2024-01-07T00:03:00;127.63;;;79.18;;
54795;SDS011;40693;43.884;20.340;2024-01-07T00:05:26;137.18;;;88.68;;
54795;SDS011;40693;43.884;20.340;2024-01-07T00:07:51;146.80;;;88.68;;
54795;SDS011;40693;43.884;20.340;2024-01-07T00:10:17;144.88;;;88.78;;
54795;SDS011;40693;43.884;20.340;2024-01-07T00:12:43;136.77;;;91.55;;
54795;SDS011;40693;43.884;20.340;2024-01-07T00:15:09;207.15;;;134.25;;
54795;SDS011;40693;43.884;20.340;2024-01-07T00:17:35;213.18;;;136.55;;
54795;SDS011;40693;43.884;20.340;2024-01-07T00:20:01;185.65;;;122.15;;
54795;SDS011;40693;43.884;20.340;2024-01-07T00:22:26;184.18;;;119.20;;
54795;SDS011;40693;43.884;20.340;2024-01-07T00:24:52;171.63;;;112.50;;
54795;SDS011;40693;43.884;20.340;2024-01-07T00:27:18;164.32;;;110.38;;
54795;SDS011;40693;43.884;20.340;2024-01-07T00:29:44;183.50;;;117.15;;
54795;SDS011;40693;43.884;20.340;2024-01-07T00:32:09;173.90;;;117.57;;
54795;SDS011;40693;43.884;20.340;2024-01-07T00:34:35;186.63;;;116.78;;
54795;SDS011;40693;43.884;20.340;2024-01-07T00:37:01;199.75;;;126.10;;
54795;SDS011;40693;43.884;20.340;2024-01-07T00:39:27;208.85;;;124.53;;
54795;SDS011;40693;43.884;20.340;2024-01-07T00:41:52;204.80;;;119.82;;
54795;SDS011;40693;43.884;20.340;2024-01-07T00:44:18;209.70;;;121.95;;
54795;SDS011;40693;43.884;20.340;2024-01-07T00:46:44;183.38;;;118.07;;
54795;SDS011;40693;43.884;20.340;2024-01-07T00:49:09;165.70;;;102.88;;
54795;SDS011;40693;43.884;20.340;2024-01-07T00:51:35;149.13;;;94.60;;
54795;SDS011;40693;43.884;20.340;2024-01-07T00:54:01;150.05;;;97.20;;
54795;SDS011;40693;43.884;20.340;2024-01-07T00:56:27;148.90;;;95.90;;
54795;SDS011;40693;43.884;20.340;2024-01-07T00:58:53;144.90;;;89.70;;
54795;SDS011;40693;43.884;20.340;2024-01-07T01:01:19;133.07;;;87.35;;
54795;SDS011;40693;43.884;20.340;2024-01-07T01:03:44;137.25;;;87.93;;
54795;SDS011;40693;43.884;20.340;2024-01-07T01:06:11;135.68;;;87.20;;
54795;SDS011;40693;43.884;20.340;2024-01-07T01:08:37;133.73;;;83.72;;
54795;SDS011;40693;43.884;20.340;2024-01-07T01:11:02;139.02;;;85.32;;
54795;SDS011;40693;43.884;20.340;2024-01-07T01:13:28;121.18;;;77.03;;
54795;SDS011;40693;43.884;20.340;2024-01-07T01:15:54;127.45;;;76.07;;
54795;SDS011;40693;43.884;20.340;2024-01-07T01:18:20;110.72;;;74.57;;
54795;SDS011;40693;43.884;20.340;2024-01-07T01:20:46;90.93;;;58.80;;
54795;SDS011;40693;43.884;20.340;2024-01-07T01:23:12;115.25;;;76.65;;
54795;SDS011;40693;43.884;20.340;2024-01-07T01:25:37;126.15;;;83.65;;
54795;SDS011;40693;43.884;20.340;2024-01-07T01:28:04;154.27;;;97.28;;
54795;SDS011;40693;43.884;20.340;2024-01-07T01:30:30;143.18;;;90.55;;
54795;SDS011;40693;43.884;20.340;2024-01-07T01:32:57;134.15;;;87.45;;
54795;SDS011;40693;43.884;20.340;2024-01-07T01:35:22;146.35;;;91.35;;
54795;SDS011;40693;43.884;20.340;2024-01-07T01:37:48;179.35;;;110.25;;
54795;SDS011;40693;43.884;20.340;2024-01-07T01:40:16;186.82;;;114.10;;
54795;SDS011;40693;43.884;20.340;2024-01-07T01:42:45;181.55;;;112.53;;
54795;SDS011;40693;43.884;20.340;2024-01-07T01:45:13;176.93;;;108.55;;
54795;SDS011;40693;43.884;20.340;2024-01-07T01:47:39;188.55;;;118.93;;
54795;SDS011;40693;43.884;20.340;2024-01-07T01:50:06;192.80;;;119.65;;
54795;SDS011;40693;43.884;20.340;2024-01-07T01:52:34;199.40;;;121.25;;
54795;SDS011;40693;43.884;20.340;2024-01-07T01:55:01;196.27;;;122.70;;
54795;SDS011;40693;43.884;20.340;2024-01-07T01:57:29;111.82;;;67.10;;
54795;SDS011;40693;43.884;20.340;2024-01-07T02:00:01;79.18;;;48.65;;
54795;SDS011;40693;43.884;20.340;2024-01-07T02:02:30;39.85;;;22.77;;
54795;SDS011;40693;43.884;20.340;2024-01-07T02:04:57;35.67;;;19.75;;
54795;SDS011;40693;43.884;20.340;2024-01-07T02:07:24;25.40;;;14.13;;
54795;SDS011;40693;43.884;20.340;2024-01-07T02:09:50;23.00;;;11.75;;
54795;SDS011;40693;43.884;20.340;2024-01-07T02:12:15;27.27;;;13.35;;
54795;SDS011;40693;43.884;20.340;2024-01-07T02:14:41;26.55;;;13.40;;
54795;SDS011;40693;43.884;20.340;2024-01-07T02:17:07;23.80;;;12.63;;
54795;SDS011;40693;43.884;20.340;2024-01-07T02:19:33;21.42;;;12.95;;
54795;SDS011;40693;43.884;20.340;2024-01-07T02:21:59;22.55;;;12.30;;
54795;SDS011;40693;43.884;20.340;2024-01-07T02:24:24;21.67;;;13.65;;
54795;SDS011;40693;43.884;20.340;2024-01-07T02:26:50;22.60;;;11.70;;
54795;SDS011;40693;43.884;20.340;2024-01-07T02:29:16;22.85;;;14.48;;
54795;SDS011;40693;43.884;20.340;2024-01-07T02:31:42;21.65;;;11.40;;
54795;SDS011;40693;43.884;20.340;2024-01-07T02:34:10;21.10;;;13.10;;
54795;SDS011;40693;43.884;20.340;2024-01-07T02:36:36;29.67;;;14.73;;
54795;SDS011;40693;43.884;20.340;2024-01-07T02:39:02;29.55;;;16.10;;
54795;SDS011;40693;43.884;20.340;2024-01-07T02:41:28;44.80;;;24.25;;
54795;SDS011;40693;43.884;20.340;2024-01-07T02:43:53;44.70;;;24.42;;
54795;SDS011;40693;43.884;20.340;2024-01-07T02:46:19;44.70;;;24.35;;
54795;SDS011;40693;43.884;20.340;2024-01-07T02:48:45;54.17;;;31.95;;
54795;SDS011;40693;43.884;20.340;2024-01-07T02:51:11;62.22;;;39.92;;
54795;SDS011;40693;43.884;20.340;2024-01-07T02:53:37;89.70;;;59.00;;
54795;SDS011;40693;43.884;20.340;2024-01-07T02:56:03;72.88;;;46.83;;
54795;SDS011;40693;43.884;20.340;2024-01-07T02:58:33;95.00;;;58.35;;
54795;SDS011;40693;43.884;20.340;2024-01-07T03:00:59;96.72;;;60.88;;
54795;SDS011;40693;43.884;20.340;2024-01-07T03:03:25;93.68;;;57.67;;
54795;SDS011;40693;43.884;20.340;2024-01-07T03:05:51;82.07;;;49.80;;
54795;SDS011;40693;43.884;20.340;2024-01-07T03:08:17;84.55;;;55.03;;
54795;SDS011;40693;43.884;20.340;2024-01-07T03:10:43;68.50;;;42.45;;
54795;SDS011;40693;43.884;20.340;2024-01-07T03:13:08;70.72;;;45.95;;
54795;SDS011;40693;43.884;20.340;2024-01-07T03:15:34;84.53;;;52.30;;
54795;SDS011;40693;43.884;20.340;2024-01-07T03:18:00;89.57;;;57.20;;
54795;SDS011;40693;43.884;20.340;2024-01-07T03:20:26;59.42;;;40.00;;
54795;SDS011;40693;43.884;20.340;2024-01-07T03:22:52;63.70;;;40.30;;
54795;SDS011;40693;43.884;20.340;2024-01-07T03:25:18;72.15;;;41.13;;
54795;SDS011;40693;43.884;20.340;2024-01-07T03:27:44;64.47;;;40.72;;
54795;SDS011;40693;43.884;20.340;2024-01-07T03:30:10;59.65;;;38.60;;
54795;SDS011;40693;43.884;20.340;2024-01-07T03:32:36;61.90;;;36.67;;
54795;SDS011;40693;43.884;20.340;2024-01-07T03:35:02;62.80;;;40.47;;
54795;SDS011;40693;43.884;20.340;2024-01-07T03:37:28;72.15;;;44.40;;
54795;SDS011;40693;43.884;20.340;2024-01-07T03:39:54;83.25;;;50.20;;
54795;SDS011;40693;43.884;20.340;2024-01-07T03:42:19;89.50;;;53.92;;
54795;SDS011;40693;43.884;20.340;2024-01-07T03:44:45;117.13;;;65.72;;
54795;SDS011;40693;43.884;20.340;2024-01-07T03:47:11;126.15;;;74.15;;
54795;SDS011;40693;43.884;20.340;2024-01-07T03:49:37;94.68;;;57.05;;
54795;SDS011;40693;43.884;20.340;2024-01-07T03:52:04;87.47;;;51.03;;
54795;SDS011;40693;43.884;20.340;2024-01-07T03:54:33;79.22;;;47.70;;
54795;SDS011;40693;43.884;20.340;2024-01-07T03:56:59;89.22;;;54.30;;
54795;SDS011;40693;43.884;20.340;2024-01-07T03:59:25;95.05;;;56.30;;
54795;SDS011;40693;43.884;20.340;2024-01-07T04:01:55;108.78;;;62.67;;
54795;SDS011;40693;43.884;20.340;2024-01-07T04:04:22;98.43;;;61.80;;
54795;SDS011;40693;43.884;20.340;2024-01-07T04:06:48;92.15;;;57.53;;
54795;SDS011;40693;43.884;20.340;2024-01-07T04:09:14;90.53;;;53.38;;
54795;SDS011;40693;43.884;20.340;2024-01-07T04:11:40;78.07;;;48.65;;
54795;SDS011;40693;43.884;20.340;2024-01-07T04:14:06;74.63;;;46.03;;
54795;SDS011;40693;43.884;20.340;2024-01-07T04:16:33;71.20;;;43.30;;
54795;SDS011;40693;43.884;20.340;2024-01-07T04:18:58;63.08;;;35.25;;
54795;SDS011;40693;43.884;20.340;2024-01-07T04:21:24;57.55;;;34.15;;
54795;SDS011;40693;43.884;20.340;2024-01-07T04:23:50;58.50;;;36.67;;
54795;SDS011;40693;43.884;20.340;2024-01-07T04:26:16;51.58;;;33.55;;
54795;SDS011;40693;43.884;20.340;2024-01-07T04:28:41;52.30;;;30.98;;
54795;SDS011;40693;43.884;20.340;2024-01-07T04:31:08;47.92;;;29.15;;
54795;SDS011;40693;43.884;20.340;2024-01-07T04:33:34;48.75;;;30.42;;
54795;SDS011;40693;43.884;20.340;2024-01-07T04:36:00;53.72;;;31.50;;
54795;SDS011;40693;43.884;20.340;2024-01-07T04:38:26;48.35;;;30.33;;
54795;SDS011;40693;43.884;20.340;2024-01-07T04:40:52;47.97;;;32.22;;
54795;SDS011;40693;43.884;20.340;2024-01-07T04:43:18;43.70;;;30.40;;
54795;SDS011;40693;43.884;20.340;2024-01-07T04:45:44;45.83;;;30.00;;
54795;SDS011;40693;43.884;20.340;2024-01-07T04:48:10;52.05;;;33.28;;
54795;SDS011;40693;43.884;20.340;2024-01-07T04:50:36;50.50;;;35.15;;
54795;SDS011;40693;43.884;20.340;2024-01-07T04:53:02;57.17;;;35.67;;
54795;SDS011;40693;43.884;20.340;2024-01-07T04:55:29;52.00;;;34.58;;
54795;SDS011;40693;43.884;20.340;2024-01-07T04:57:55;59.88;;;37.00;;
54795;SDS011;40693;43.884;20.340;2024-01-07T05:00:21;66.72;;;37.75;;
54795;SDS011;40693;43.884;20.340;2024-01-07T05:02:47;62.85;;;39.50;;
54795;SDS011;40693;43.884;20.340;2024-01-07T05:05:12;64.93;;;37.60;;
54795;SDS011;40693;43.884;20.340;2024-01-07T05:07:38;61.53;;;37.17;;
54795;SDS011;40693;43.884;20.340;2024-01-07T05:10:04;58.75;;;35.53;;
54795;SDS011;40693;43.884;20.340;2024-01-07T05:12:30;63.05;;;37.80;;
54795;SDS011;40693;43.884;20.340;2024-01-07T05:14:56;61.90;;;36.13;;
54795;SDS011;40693;43.884;20.340;2024-01-07T05:17:22;60.80;;;37.80;;
54795;SDS011;40693;43.884;20.340;2024-01-07T05:19:48;86.22;;;49.20;;
54795;SDS011;40693;43.884;20.340;2024-01-07T05:22:13;69.25;;;42.92;;
54795;SDS011;40693;43.884;20.340;2024-01-07T05:24:39;56.28;;;35.65;;
54795;SDS011;40693;43.884;20.340;2024-01-07T05:27:05;55.78;;;33.00;;
54795;SDS011;40693;43.884;20.340;2024-01-07T05:29:31;63.20;;;37.53;;
54795;SDS011;40693;43.884;20.340;2024-01-07T05:32:00;51.17;;;34.40;;
54795;SDS011;40693;43.884;20.340;2024-01-07T05:34:27;51.50;;;33.95;;
54795;SDS011;40693;43.884;20.340;2024-01-07T05:36:53;55.17;;;35.05;;
54795;SDS011;40693;43.884;20.340;2024-01-07T05:39:19;53.25;;;33.63;;
54795;SDS011;40693;43.884;20.340;2024-01-07T05:41:45;58.33;;;36.20;;
54795;SDS011;40693;43.884;20.340;2024-01-07T05:44:11;49.45;;;32.25;;
54795;SDS011;40693;43.884;20.340;2024-01-07T05:46:38;63.95;;;40.25;;
54795;SDS011;40693;43.884;20.340;2024-01-07T05:49:08;58.13;;;37.25;;
54795;SDS011;40693;43.884;20.340;2024-01-07T05:51:33;52.33;;;34.67;;
54795;SDS011;40693;43.884;20.340;2024-01-07T05:54:03;74.30;;;45.22;;
54795;SDS011;40693;43.884;20.340;2024-01-07T05:56:29;76.63;;;46.58;;
54795;SDS011;40693;43.884;20.340;2024-01-07T05:58:54;74.00;;;45.78;;
54795;SDS011;40693;43.884;20.340;2024-01-07T06:01:20;61.58;;;39.97;;
54795;SDS011;40693;43.884;20.340;2024-01-07T06:03:47;71.75;;;44.08;;
54795;SDS011;40693;43.884;20.340;2024-01-07T06:06:13;101.20;;;64.97;;
54795;SDS011;40693;43.884;20.340;2024-01-07T06:08:43;100.80;;;59.15;;
54795;SDS011;40693;43.884;20.340;2024-01-07T06:11:09;94.65;;;59.05;;
54795;SDS011;40693;43.884;20.340;2024-01-07T06:13:37;102.90;;;60.00;;
54795;SDS011;40693;43.884;20.340;2024-01-07T06:16:03;96.38;;;61.67;;
54795;SDS011;40693;43.884;20.340;2024-01-07T06:18:29;96.47;;;59.35;;
54795;SDS011;40693;43.884;20.340;2024-01-07T06:20:55;94.10;;;56.55;;
54795;SDS011;40693;43.884;20.340;2024-01-07T06:23:21;79.20;;;50.20;;
54795;SDS011;40693;43.884;20.340;2024-01-07T06:25:47;76.65;;;48.55;;
54795;SDS011;40693;43.884;20.340;2024-01-07T06:28:12;84.68;;;53.67;;
54795;SDS011;40693;43.884;20.340;2024-01-07T06:30:38;120.93;;;73.57;;
54795;SDS011;40693;43.884;20.340;2024-01-07T06:33:04;139.48;;;79.82;;
54795;SDS011;40693;43.884;20.340;2024-01-07T06:35:30;139.73;;;75.78;;
54795;SDS011;40693;43.884;20.340;2024-01-07T06:37:56;221.43;;;123.43;;
54795;SDS011;40693;43.884;20.340;2024-01-07T06:40:22;180.73;;;110.45;;
54795;SDS011;40693;43.884;20.340;2024-01-07T06:42:48;130.75;;;80.13;;
54795;SDS011;40693;43.884;20.340;2024-01-07T06:45:14;124.88;;;78.10;;
54795;SDS011;40693;43.884;20.340;2024-01-07T06:47:40;142.40;;;82.53;;
54795;SDS011;40693;43.884;20.340;2024-01-07T06:50:06;137.98;;;82.32;;
54795;SDS011;40693;43.884;20.340;2024-01-07T06:52:32;137.45;;;85.00;;
54795;SDS011;40693;43.884;20.340;2024-01-07T06:54:58;134.95;;;86.30;;
54795;SDS011;40693;43.884;20.340;2024-01-07T06:57:24;141.65;;;90.20;;
54795;SDS011;40693;43.884;20.340;2024-01-07T06:59:50;158.15;;;99.47;;
54795;SDS011;40693;43.884;20.340;2024-01-07T07:02:15;168.35;;;111.57;;
54795;SDS011;40693;43.884;20.340;2024-01-07T07:04:41;174.93;;;119.38;;
54795;SDS011;40693;43.884;20.340;2024-01-07T07:07:07;193.75;;;137.15;;
54795;SDS011;40693;43.884;20.340;2024-01-07T07:09:33;169.18;;;115.47;;
54795;SDS011;40693;43.884;20.340;2024-01-07T07:11:59;123.97;;;80.93;;
54795;SDS011;40693;43.884;20.340;2024-01-07T07:14:25;137.50;;;89.65;;
54795;SDS011;40693;43.884;20.340;2024-01-07T07:16:51;144.95;;;95.20;;
54795;SDS011;40693;43.884;20.340;2024-01-07T07:19:17;160.65;;;107.30;;
54795;SDS011;40693;43.884;20.340;2024-01-07T07:21:43;172.25;;;119.75;;
54795;SDS011;40693;43.884;20.340;2024-01-07T07:24:09;172.45;;;115.88;;
54795;SDS011;40693;43.884;20.340;2024-01-07T07:26:35;129.27;;;90.57;;
54795;SDS011;40693;43.884;20.340;2024-01-07T07:29:05;112.05;;;81.38;;
54795;SDS011;40693;43.884;20.340;2024-01-07T07:31:32;95.70;;;65.15;;
54795;SDS011;40693;43.884;20.340;2024-01-07T07:33:57;94.80;;;68.78;;
54795;SDS011;40693;43.884;20.340;2024-01-07T07:36:23;86.03;;;61.72;;
54795;SDS011;40693;43.884;20.340;2024-01-07T07:38:49;104.00;;;72.45;;
54795;SDS011;40693;43.884;20.340;2024-01-07T07:41:15;104.35;;;71.80;;
54795;SDS011;40693;43.884;20.340;2024-01-07T07:43:40;99.07;;;65.95;;
54795;SDS011;40693;43.884;20.340;2024-01-07T07:46:06;94.57;;;62.72;;
54795;SDS011;40693;43.884;20.340;2024-01-07T07:48:32;77.93;;;53.80;;
54795;SDS011;40693;43.884;20.340;2024-01-07T07:50:58;88.70;;;62.72;;
54795;SDS011;40693;43.884;20.340;2024-01-07T07:53:23;88.45;;;61.97;;
54795;SDS011;40693;43.884;20.340;2024-01-07T07:55:49;93.00;;;67.38;;
54795;SDS011;40693;43.884;20.340;2024-01-07T07:58:15;87.22;;;66.95;;
54795;SDS011;40693;43.884;20.340;2024-01-07T08:00:40;65.13;;;49.05;;
54795;SDS011;40693;43.884;20.340;2024-01-07T08:03:06;74.05;;;55.20;;
54795;SDS011;40693;43.884;20.340;2024-01-07T08:05:32;76.80;;;56.65;;
54795;SDS011;40693;43.884;20.340;2024-01-07T08:07:58;90.50;;;64.07;;
54795;SDS011;40693;43.884;20.340;2024-01-07T08:10:23;87.47;;;60.17;;
54795;SDS011;40693;43.884;20.340;2024-01-07T08:12:49;98.47;;;70.72;;
54795;SDS011;40693;43.884;20.340;2024-01-07T08:15:15;94.88;;;64.50;;
54795;SDS011;40693;43.884;20.340;2024-01-07T08:17:41;92.35;;;62.13;;
54795;SDS011;40693;43.884;20.340;2024-01-07T08:20:09;81.75;;;55.15;;
54795;SDS011;40693;43.884;20.340;2024-01-07T08:22:35;80.65;;;50.20;;
54795;SDS011;40693;43.884;20.340;2024-01-07T08:25:01;68.75;;;44.83;;
54795;SDS011;40693;43.884;20.340;2024-01-07T08:27:26;72.65;;;48.33;;
54795;SDS011;40693;43.884;20.340;2024-01-07T08:29:52;65.57;;;43.13;;
54795;SDS011;40693;43.884;20.340;2024-01-07T08:32:18;70.85;;;47.22;;
54795;SDS011;40693;43.884;20.340;2024-01-07T08:34:47;59.47;;;40.55;;
54795;SDS011;40693;43.884;20.340;2024-01-07T08:37:13;67.22;;;46.67;;
54795;SDS011;40693;43.884;20.340;2024-01-07T08:39:39;66.07;;;44.42;;
54795;SDS011;40693;43.884;20.340;2024-01-07T08:42:04;69.28;;;45.97;;
54795;SDS011;40693;43.884;20.340;2024-01-07T08:44:30;61.80;;;40.17;;
54795;SDS011;40693;43.884;20.340;2024-01-07T08:46:56;64.15;;;41.67;;
54795;SDS011;40693;43.884;20.340;2024-01-07T08:49:22;58.20;;;38.97;;
54795;SDS011;40693;43.884;20.340;2024-01-07T08:51:48;47.28;;;35.10;;
54795;SDS011;40693;43.884;20.340;2024-01-07T08:54:14;56.30;;;40.85;;
54795;SDS011;40693;43.884;20.340;2024-01-07T08:56:40;47.05;;;35.50;;
54795;SDS011;40693;43.884;20.340;2024-01-07T08:59:06;47.63;;;34.85;;
54795;SDS011;40693;43.884;20.340;2024-01-07T09:01:32;50.35;;;31.35;;
54795;SDS011;40693;43.884;20.340;2024-01-07T09:03:57;38.60;;;28.63;;
54795;SDS011;40693;43.884;20.340;2024-01-07T09:06:23;36.78;;;25.30;;
54795;SDS011;40693;43.884;20.340;2024-01-07T09:08:49;34.50;;;23.50;;
54795;SDS011;40693;43.884;20.340;2024-01-07T09:11:18;38.20;;;25.17;;
54795;SDS011;40693;43.884;20.340;2024-01-07T09:13:44;60.75;;;42.58;;
54795;SDS011;40693;43.884;20.340;2024-01-07T09:16:13;62.28;;;39.97;;
54795;SDS011;40693;43.884;20.340;2024-01-07T09:18:39;61.70;;;39.80;;
54795;SDS011;40693;43.884;20.340;2024-01-07T09:21:05;57.97;;;42.65;;
54795;SDS011;40693;43.884;20.340;2024-01-07T09:23:31;60.92;;;44.42;;
54795;SDS011;40693;43.884;20.340;2024-01-07T09:25:58;59.30;;;38.00;;
54795;SDS011;40693;43.884;20.340;2024-01-07T09:28:24;56.97;;;38.70;;
54795;SDS011;40693;43.884;20.340;2024-01-07T09:30:50;59.33;;;41.15;;
54795;SDS011;40693;43.884;20.340;2024-01-07T09:33:16;90.90;;;55.25;;
54795;SDS011;40693;43.884;20.340;2024-01-07T09:35:42;79.68;;;53.08;;
54795;SDS011;40693;43.884;20.340;2024-01-07T09:38:08;57.75;;;39.10;;
54795;SDS011;40693;43.884;20.340;2024-01-07T09:40:34;56.05;;;39.13;;
54795;SDS011;40693;43.884;20.340;2024-01-07T09:43:00;55.28;;;37.22;;
54795;SDS011;40693;43.884;20.340;2024-01-07T09:45:26;62.00;;;39.08;;
54795;SDS011;40693;43.884;20.340;2024-01-07T09:47:55;60.92;;;43.40;;
54795;SDS011;40693;43.884;20.340;2024-01-07T09:50:20;65.13;;;39.92;;
54795;SDS011;40693;43.884;20.340;2024-01-07T09:52:47;64.13;;;41.15;;
54795;SDS011;40693;43.884;20.340;2024-01-07T09:55:27;91.85;;;58.30;;
54795;SDS011;40693;43.884;20.340;2024-01-07T09:58:04;90.78;;;57.80;;
54795;SDS011;40693;43.884;20.340;2024-01-07T10:00:30;85.55;;;52.15;;
54795;SDS011;40693;43.884;20.340;2024-01-07T10:02:56;60.92;;;42.53;;
54795;SDS011;40693;43.884;20.340;2024-01-07T10:05:22;56.78;;;39.33;;
54795;SDS011;40693;43.884;20.340;2024-01-07T10:07:47;62.83;;;46.42;;
54795;SDS011;40693;43.884;20.340;2024-01-07T10:10:16;65.03;;;44.83;;
54795;SDS011;40693;43.884;20.340;2024-01-07T10:12:45;57.50;;;41.15;;
54795;SDS011;40693;43.884;20.340;2024-01-07T10:15:12;58.20;;;43.03;;
54795;SDS011;40693;43.884;20.340;2024-01-07T10:17:38;45.35;;;32.50;;
54795;SDS011;40693;43.884;20.340;2024-01-07T10:20:05;53.28;;;34.42;;
54795;SDS011;40693;43.884;20.340;2024-01-07T10:22:34;50.22;;;36.80;;
54795;SDS011;40693;43.884;20.340;2024-01-07T10:25:02;47.60;;;32.35;;
54795;SDS011;40693;43.884;20.340;2024-01-07T10:27:28;50.20;;;33.88;;
54795;SDS011;40693;43.884;20.340;2024-01-07T10:29:53;50.15;;;35.42;;
54795;SDS011;40693;43.884;20.340;2024-01-07T10:32:20;62.97;;;38.90;;
54795;SDS011;40693;43.884;20.340;2024-01-07T10:34:46;96.03;;;67.70;;
54795;SDS011;40693;43.884;20.340;2024-01-07T10:37:12;67.95;;;46.75;;
54795;SDS011;40693;43.884;20.340;2024-01-07T10:39:38;77.43;;;51.80;;
54795;SDS011;40693;43.884;20.340;2024-01-07T10:42:04;62.45;;;42.20;;
54795;SDS011;40693;43.884;20.340;2024-01-07T10:44:31;68.20;;;46.47;;
54795;SDS011;40693;43.884;20.340;2024-01-07T10:46:58;59.08;;;43.42;;
54795;SDS011;40693;43.884;20.340;2024-01-07T10:49:25;61.20;;;44.38;;
54795;SDS011;40693;43.884;20.340;2024-01-07T10:54:29;42.67;;;28.88;;
54795;SDS011;40693;43.884;20.340;2024-01-07T10:56:58;42.78;;;30.63;;
54795;SDS011;40693;43.884;20.340;2024-01-07T10:59:45;43.63;;;33.65;;
54795;SDS011;40693;43.884;20.340;2024-01-07T11:02:11;63.63;;;42.05;;
54795;SDS011;40693;43.884;20.340;2024-01-07T11:04:51;66.55;;;47.28;;
54795;SDS011;40693;43.884;20.340;2024-01-07T11:07:34;77.97;;;55.20;;
54795;SDS011;40693;43.884;20.340;2024-01-07T11:10:07;53.03;;;39.20;;
54795;SDS011;40693;43.884;20.340;2024-01-07T11:12:39;46.25;;;34.30;;
54795;SDS011;40693;43.884;20.340;2024-01-07T11:15:05;59.28;;;38.78;;
54795;SDS011;40693;43.884;20.340;2024-01-07T11:20:02;58.38;;;38.92;;
54795;SDS011;40693;43.884;20.340;2024-01-07T11:22:30;48.70;;;35.65;;
54795;SDS011;40693;43.884;20.340;2024-01-07T11:25:00;50.25;;;36.28;;
54795;SDS011;40693;43.884;20.340;2024-01-07T11:27:29;52.67;;;37.35;;
54795;SDS011;40693;43.884;20.340;2024-01-07T11:32:35;70.00;;;44.15;;
54795;SDS011;40693;43.884;20.340;2024-01-07T11:35:01;73.38;;;42.25;;
54795;SDS011;40693;43.884;20.340;2024-01-07T11:37:27;53.90;;;35.58;;
54795;SDS011;40693;43.884;20.340;2024-01-07T11:39:57;67.75;;;42.60;;
54795;SDS011;40693;43.884;20.340;2024-01-07T11:42:23;53.42;;;36.45;;
54795;SDS011;40693;43.884;20.340;2024-01-07T11:44:53;70.10;;;43.30;;
54795;SDS011;40693;43.884;20.340;2024-01-07T11:47:20;79.18;;;48.97;;
54795;SDS011;40693;43.884;20.340;2024-01-07T11:49:46;74.22;;;49.25;;
54795;SDS011;40693;43.884;20.340;2024-01-07T11:52:14;78.70;;;47.45;;
54795;SDS011;40693;43.884;20.340;2024-01-07T11:54:40;72.18;;;47.08;;
54795;SDS011;40693;43.884;20.340;2024-01-07T11:57:07;80.03;;;52.60;;
54795;SDS011;40693;43.884;20.340;2024-01-07T11:59:33;77.82;;;49.42;;
54795;SDS011;40693;43.884;20.340;2024-01-07T12:02:00;79.38;;;53.30;;
54795;SDS011;40693;43.884;20.340;2024-01-07T12:04:26;89.65;;;60.40;;
54795;SDS011;40693;43.884;20.340;2024-01-07T12:06:53;91.40;;;61.72;;
54795;SDS011;40693;43.884;20.340;2024-01-07T12:09:19;96.43;;;65.00;;
54795;SDS011;40693;43.884;20.340;2024-01-07T12:11:44;101.18;;;66.68;;
54795;SDS011;40693;43.884;20.340;2024-01-07T12:14:10;81.18;;;58.45;;
54795;SDS011;40693;43.884;20.340;2024-01-07T12:16:37;67.85;;;50.15;;
54795;SDS011;40693;43.884;20.340;2024-01-07T12:19:03;83.80;;;54.17;;
54795;SDS011;40693;43.884;20.340;2024-01-07T12:21:29;65.18;;;45.53;;
54795;SDS011;40693;43.884;20.340;2024-01-07T12:23:55;59.47;;;39.70;;
54795;SDS011;40693;43.884;20.340;2024-01-07T12:26:28;64.07;;;43.05;;
54795;SDS011;40693;43.884;20.340;2024-01-07T12:28:55;79.75;;;48.47;;
54795;SDS011;40693;43.884;20.340;2024-01-07T12:31:29;72.63;;;47.28;;
54795;SDS011;40693;43.884;20.340;2024-01-07T12:33:58;69.28;;;45.60;;
54795;SDS011;40693;43.884;20.340;2024-01-07T12:36:24;75.50;;;50.63;;
54795;SDS011;40693;43.884;20.340;2024-01-07T12:38:51;83.85;;;56.65;;
54795;SDS011;40693;43.884;20.340;2024-01-07T12:41:21;88.93;;;58.85;;
54795;SDS011;40693;43.884;20.340;2024-01-07T12:43:48;115.03;;;83.00;;
54795;SDS011;40693;43.884;20.340;2024-01-07T12:46:15;104.68;;;78.03;;
54795;SDS011;40693;43.884;20.340;2024-01-07T12:48:41;104.00;;;74.50;;
54795;SDS011;40693;43.884;20.340;2024-01-07T12:51:07;113.00;;;82.55;;
54795;SDS011;40693;43.884;20.340;2024-01-07T12:53:33;103.70;;;73.78;;
54795;SDS011;40693;43.884;20.340;2024-01-07T12:55:58;98.13;;;70.22;;
54795;SDS011;40693;43.884;20.340;2024-01-07T12:58:24;87.75;;;60.17;;
54795;SDS011;40693;43.884;20.340;2024-01-07T13:00:50;82.75;;;59.20;;
54795;SDS011;40693;43.884;20.340;2024-01-07T13:03:16;81.18;;;55.58;;
54795;SDS011;40693;43.884;20.340;2024-01-07T13:05:45;66.95;;;48.88;;
54795;SDS011;40693;43.884;20.340;2024-01-07T13:08:14;89.75;;;68.95;;
54795;SDS011;40693;43.884;20.340;2024-01-07T13:10:41;72.90;;;50.53;;
54795;SDS011;40693;43.884;20.340;2024-01-07T13:13:06;81.72;;;54.92;;
54795;SDS011;40693;43.884;20.340;2024-01-07T13:15:34;69.93;;;48.53;;
54795;SDS011;40693;43.884;20.340;2024-01-07T13:18:00;68.53;;;47.35;;
54795;SDS011;40693;43.884;20.340;2024-01-07T13:20:27;63.45;;;47.58;;
54795;SDS011;40693;43.884;20.340;2024-01-07T13:22:53;66.78;;;50.08;;
54795;SDS011;40693;43.884;20.340;2024-01-07T13:25:19;73.50;;;51.85;;
54795;SDS011;40693;43.884;20.340;2024-01-07T13:27:44;55.95;;;41.25;;
54795;SDS011;40693;43.884;20.340;2024-01-07T13:30:10;52.10;;;38.45;;
54795;SDS011;40693;43.884;20.340;2024-01-07T13:32:36;56.13;;;43.08;;
54795;SDS011;40693;43.884;20.340;2024-01-07T13:35:06;60.25;;;45.08;;
54795;SDS011;40693;43.884;20.340;2024-01-07T13:37:36;112.18;;;58.88;;
54795;SDS011;40693;43.884;20.340;2024-01-07T13:40:02;96.95;;;57.95;;
54795;SDS011;40693;43.884;20.340;2024-01-07T13:42:29;100.13;;;61.85;;
54795;SDS011;40693;43.884;20.340;2024-01-07T13:44:55;81.53;;;54.58;;
54795;SDS011;40693;43.884;20.340;2024-01-07T13:47:23;74.63;;;48.63;;
54795;SDS011;40693;43.884;20.340;2024-01-07T13:49:49;85.63;;;53.97;;
54795;SDS011;40693;43.884;20.340;2024-01-07T13:52:14;56.28;;;39.38;;
54795;SDS011;40693;43.884;20.340;2024-01-07T13:54:40;60.88;;;38.97;;
54795;SDS011;40693;43.884;20.340;2024-01-07T13:57:06;63.38;;;41.80;;
54795;SDS011;40693;43.884;20.340;2024-01-07T13:59:32;58.95;;;39.70;;
54795;SDS011;40693;43.884;20.340;2024-01-07T14:01:58;70.22;;;45.85;;
54795;SDS011;40693;43.884;20.340;2024-01-07T14:04:24;53.00;;;37.10;;
54795;SDS011;40693;43.884;20.340;2024-01-07T14:06:54;57.53;;;36.10;;